Time;durP1;ratioP1;P1;durP2;ratioP2;P2;SDS_P1;SDS_P2;PMS_P1;PMS_P2;Temp;Humidity;BMP_temperature;BMP_pressure;BME280_temperature;BME280_humidity;BME280_pressure;Samples;Min_cycle;Max_cycle;Signal;HPM_P1;HPM_P2
2022/12/11 00:01:14;;;;;;;35.83;17.33;;;;;;;;;;5076765;28;20051;-56
2022/12/11 00:03:39;;;;;;;38.72;17.27;;;;;;;;;;5072910;28;20133;-56
2022/12/11 00:06:05;;;;;;;35.60;17.48;;;;;;;;;;5072869;28;20419;-55
2022/12/11 00:08:31;;;;;;;32.47;17.27;;;;;;;;;;5070460;28;20051;-57
2022/12/11 00:10:56;;;;;;;37.25;18.73;;;;;;;;;;5066681;28;20035;-57
2022/12/11 00:13:21;;;;;;;34.60;18.33;;;;;;;;;;5073028;28;20084;-57
2022/12/11 00:15:46;;;;;;;46.05;20.92;;;;;;;;;;5066945;28;20055;-57
2022/12/11 00:18:12;;;;;;;42.88;19.98;;;;;;;;;;5082932;28;20425;-57
2022/12/11 00:20:38;;;;;;;37.00;18.77;;;;;;;;;;5074343;28;20105;-57
2022/12/11 00:23:03;;;;;;;41.08;19.23;;;;;;;;;;5075313;28;20025;-56
2022/12/11 00:25:29;;;;;;;41.15;19.90;;;;;;;;;;5071932;28;20085;-58
2022/12/11 00:27:54;;;;;;;38.63;18.92;;;;;;;;;;5067349;28;20463;-55
2022/12/11 00:30:19;;;;;;;39.97;18.55;;;;;;;;;;5072018;28;20024;-57
2022/12/11 00:32:45;;;;;;;38.13;18.05;;;;;;;;;;5070273;28;20028;-56
2022/12/11 00:35:10;;;;;;;38.60;18.05;;;;;;;;;;5072444;28;20419;-56
2022/12/11 00:37:35;;;;;;;39.00;17.55;;;;;;;;;;5070179;28;20033;-56
2022/12/11 00:40:00;;;;;;;39.60;16.83;;;;;;;;;;5075392;28;20612;-56
2022/12/11 00:42:26;;;;;;;39.33;20.05;;;;;;;;;;5071195;28;20028;-56
2022/12/11 00:44:51;;;;;;;40.75;18.75;;;;;;;;;;5072543;28;20367;-55
2022/12/11 00:47:16;;;;;;;40.08;17.42;;;;;;;;;;5070491;28;20025;-56
2022/12/11 00:49:42;;;;;;;39.40;19.83;;;;;;;;;;5077507;28;20055;-56
2022/12/11 00:52:08;;;;;;;36.80;17.23;;;;;;;;;;5073144;28;20031;-56
2022/12/11 00:54:33;;;;;;;39.45;18.67;;;;;;;;;;5070880;28;20773;-55
2022/12/11 00:56:58;;;;;;;43.65;19.27;;;;;;;;;;5074661;28;20040;-57
2022/12/11 00:59:24;;;;;;;37.60;17.42;;;;;;;;;;5069441;28;20048;-56
2022/12/11 01:01:49;;;;;;;34.55;17.25;;;;;;;;;;5070313;28;20024;-57
2022/12/11 01:04:14;;;;;;;38.38;17.08;;;;;;;;;;5077896;28;20106;-57
2022/12/11 01:06:40;;;;;;;38.30;15.82;;;;;;;;;;5074260;28;20889;-56
2022/12/11 01:11:49;;;;;;;36.95;16.92;;;;;;;;;;5066802;28;20428;-57
2022/12/11 01:14:14;;;;;;;33.47;17.10;;;;;;;;;;5073862;28;20564;-57
2022/12/11 01:16:39;;;;;;;37.45;16.02;;;;;;;;;;5077496;28;20078;-57
2022/12/11 01:19:05;;;;;;;35.47;16.50;;;;;;;;;;5075920;28;20111;-57
2022/12/11 01:21:30;;;;;;;37.03;17.65;;;;;;;;;;5075706;28;20021;-58
2022/12/11 01:23:55;;;;;;;38.22;19.10;;;;;;;;;;5078903;28;20355;-57
2022/12/11 01:26:21;;;;;;;40.53;19.60;;;;;;;;;;5073677;28;20130;-57
2022/12/11 01:28:49;;;;;;;38.13;19.42;;;;;;;;;;5067053;28;20023;-56
2022/12/11 01:31:15;;;;;;;43.72;20.13;;;;;;;;;;5078920;28;20362;-57
2022/12/11 01:33:40;;;;;;;43.03;20.50;;;;;;;;;;5072868;28;20028;-56
2022/12/11 01:36:09;;;;;;;43.00;19.85;;;;;;;;;;5072466;28;20668;-57
2022/12/11 01:38:34;;;;;;;44.38;22.27;;;;;;;;;;5070133;28;20020;-57
2022/12/11 01:40:59;;;;;;;49.38;21.77;;;;;;;;;;5071978;28;20029;-56
2022/12/11 01:43:25;;;;;;;46.80;20.80;;;;;;;;;;5069793;28;20035;-56
2022/12/11 01:45:50;;;;;;;49.00;22.10;;;;;;;;;;5070923;28;20017;-56
2022/12/11 01:48:26;;;;;;;47.42;21.75;;;;;;;;;;5070575;28;20020;-57
2022/12/11 01:50:58;;;;;;;46.58;23.45;;;;;;;;;;5073065;28;20024;-57
2022/12/11 01:53:33;;;;;;;45.85;21.17;;;;;;;;;;5069963;28;20473;-57
2022/12/11 01:55:59;;;;;;;45.20;21.85;;;;;;;;;;5072281;28;20025;-56
2022/12/11 01:58:26;;;;;;;42.70;20.95;;;;;;;;;;5077438;28;20489;-56
2022/12/11 02:00:51;;;;;;;45.63;19.42;;;;;;;;;;5071700;28;20086;-55
2022/12/11 02:03:17;;;;;;;45.00;22.73;;;;;;;;;;5070374;28;20474;-56
2022/12/11 02:05:42;;;;;;;44.45;21.27;;;;;;;;;;5090731;28;20048;-57
2022/12/11 02:08:07;;;;;;;37.90;19.25;;;;;;;;;;5073455;28;20453;-57
2022/12/11 02:10:39;;;;;;;41.03;18.67;;;;;;;;;;5069378;28;20507;-56
2022/12/11 02:13:06;;;;;;;44.55;19.80;;;;;;;;;;5077982;28;20043;-57
2022/12/11 02:15:31;;;;;;;38.47;18.00;;;;;;;;;;5081759;28;20536;-57
2022/12/11 02:18:00;;;;;;;39.90;17.77;;;;;;;;;;5077570;28;20489;-57
2022/12/11 02:20:25;;;;;;;32.13;16.65;;;;;;;;;;5078925;28;20051;-57
2022/12/11 02:23:06;;;;;;;35.65;16.65;;;;;;;;;;5073787;28;20526;-58
2022/12/11 02:25:34;;;;;;;33.38;16.20;;;;;;;;;;5076293;28;20025;-57
2022/12/11 02:28:19;;;;;;;31.92;16.27;;;;;;;;;;5075420;28;20032;-57
2022/12/11 02:30:46;;;;;;;33.50;16.52;;;;;;;;;;5073271;28;20363;-56
2022/12/11 02:33:12;;;;;;;37.38;18.08;;;;;;;;;;5081098;28;20024;-57
2022/12/11 02:35:38;;;;;;;33.58;16.48;;;;;;;;;;5082144;28;20032;-57
2022/12/11 02:38:11;;;;;;;34.83;17.33;;;;;;;;;;5080561;28;20032;-57
2022/12/11 02:40:37;;;;;;;28.75;16.08;;;;;;;;;;5060986;28;20394;-57
2022/12/11 02:43:03;;;;;;;32.58;16.77;;;;;;;;;;5082443;28;20029;-56
2022/12/11 02:45:28;;;;;;;36.95;17.15;;;;;;;;;;5074132;28;20020;-57
2022/12/11 02:47:54;;;;;;;33.63;16.33;;;;;;;;;;5070809;28;20028;-57
2022/12/11 02:50:20;;;;;;;32.17;16.42;;;;;;;;;;5073702;28;20443;-56
2022/12/11 02:52:45;;;;;;;36.50;17.13;;;;;;;;;;5079013;28;20024;-56
2022/12/11 02:55:11;;;;;;;32.20;15.35;;;;;;;;;;5073860;28;20338;-57
2022/12/11 02:57:55;;;;;;;32.92;15.77;;;;;;;;;;5076037;28;20127;-56
2022/12/11 03:00:23;;;;;;;38.38;18.00;;;;;;;;;;5078161;28;20048;-56
2022/12/11 03:02:48;;;;;;;37.05;18.08;;;;;;;;;;5071869;28;20885;-57
2022/12/11 03:05:14;;;;;;;29.88;16.05;;;;;;;;;;5075819;28;20093;-57
2022/12/11 03:07:40;;;;;;;31.67;16.33;;;;;;;;;;5074509;28;20024;-56
2022/12/11 03:10:06;;;;;;;34.25;15.95;;;;;;;;;;5074932;28;20032;-57
2022/12/11 03:12:31;;;;;;;33.22;16.60;;;;;;;;;;5081344;28;20052;-56
2022/12/11 03:15:00;;;;;;;35.10;16.92;;;;;;;;;;5080091;28;20024;-57
2022/12/11 03:17:28;;;;;;;32.90;16.38;;;;;;;;;;5078752;28;20042;-57
2022/12/11 03:19:57;;;;;;;33.85;17.40;;;;;;;;;;5073948;28;20013;-56
2022/12/11 03:22:27;;;;;;;38.40;17.85;;;;;;;;;;5077396;28;20020;-57
2022/12/11 03:24:54;;;;;;;39.15;18.35;;;;;;;;;;5079492;28;20016;-56
2022/12/11 03:27:39;;;;;;;33.20;16.40;;;;;;;;;;5078590;28;20036;-55
2022/12/11 03:30:15;;;;;;;36.08;16.45;;;;;;;;;;5076473;28;20418;-55
2022/12/11 03:32:59;;;;;;;36.90;18.27;;;;;;;;;;5070305;28;20024;-56
2022/12/11 03:35:30;;;;;;;35.15;17.05;;;;;;;;;;5073496;28;20034;-57
2022/12/11 03:37:55;;;;;;;;;;;;;;;;;;5074057;28;20031;-57
2022/12/11 03:40:20;;;;;;;29.80;14.18;;;;;;;;;;5076734;28;19904;-57
2022/12/11 03:42:46;;;;;;;34.40;17.30;;;;;;;;;;5078141;28;20491;-57
2022/12/11 03:45:11;;;;;;;33.33;16.88;;;;;;;;;;5079529;28;20031;-56
2022/12/11 03:47:37;;;;;;;37.58;17.73;;;;;;;;;;5071040;28;20016;-56
2022/12/11 03:50:02;;;;;;;36.92;16.77;;;;;;;;;;5067217;28;20028;-57
2022/12/11 03:52:28;;;;;;;38.50;18.30;;;;;;;;;;5073439;28;20020;-57
2022/12/11 03:54:53;;;;;;;37.97;17.67;;;;;;;;;;5078938;28;20382;-56
2022/12/11 03:57:20;;;;;;;34.67;19.05;;;;;;;;;;5078049;28;20040;-57
2022/12/11 03:59:45;;;;;;;34.40;17.05;;;;;;;;;;5072248;28;20031;-58
2022/12/11 04:02:10;;;;;;;41.30;18.95;;;;;;;;;;5076628;28;20031;-57
2022/12/11 04:04:36;;;;;;;33.10;17.52;;;;;;;;;;5074390;28;20119;-57
2022/12/11 04:07:02;;;;;;;34.35;18.25;;;;;;;;;;5070721;28;20028;-56
2022/12/11 04:09:27;;;;;;;37.60;18.63;;;;;;;;;;5070717;28;20024;-57
2022/12/11 04:11:52;;;;;;;33.75;17.63;;;;;;;;;;5070958;28;20569;-57
2022/12/11 04:17:01;;;;;;;40.38;19.23;;;;;;;;;;5075854;28;20047;-57
2022/12/11 04:24:54;;;;;;;38.97;19.50;;;;;;;;;;5074011;28;20074;-57
2022/12/11 04:30:04;;;;;;;35.88;17.30;;;;;;;;;;5072835;28;20564;-57
2022/12/11 04:32:29;;;;;;;40.08;18.77;;;;;;;;;;5074650;28;20442;-57
2022/12/11 04:34:55;;;;;;;31.90;16.10;;;;;;;;;;5070204;28;20046;-57
2022/12/11 04:37:20;;;;;;;33.47;16.85;;;;;;;;;;5083355;28;20123;-56
2022/12/11 04:39:45;;;;;;;39.83;19.23;;;;;;;;;;5081229;28;20107;-57
2022/12/11 04:42:10;;;;;;;42.55;19.55;;;;;;;;;;5075533;28;20043;-57
2022/12/11 04:44:36;;;;;;;42.70;19.90;;;;;;;;;;5070215;28;20086;-57
2022/12/11 04:47:01;;;;;;;41.88;20.35;;;;;;;;;;5077521;28;20032;-57
2022/12/11 04:49:26;;;;;;;46.67;22.15;;;;;;;;;;5080719;28;20016;-56
2022/12/11 04:51:51;;;;;;;51.53;23.67;;;;;;;;;;5071403;28;20064;-56
2022/12/11 04:54:19;;;;;;;40.13;20.15;;;;;;;;;;5074327;28;20028;-57
2022/12/11 04:56:44;;;;;;;46.13;21.70;;;;;;;;;;5078117;28;20028;-56
2022/12/11 04:59:09;;;;;;;40.45;18.17;;;;;;;;;;5076572;28;20105;-58
2022/12/11 05:01:35;;;;;;;42.72;18.85;;;;;;;;;;5068145;28;20339;-56
2022/12/11 05:04:00;;;;;;;39.80;19.95;;;;;;;;;;5074961;28;20021;-56
2022/12/11 05:06:25;;;;;;;39.55;18.55;;;;;;;;;;5071985;28;20040;-58
2022/12/11 05:08:50;;;;;;;37.58;16.45;;;;;;;;;;5072239;28;20023;-56
2022/12/11 05:11:16;;;;;;;42.45;19.25;;;;;;;;;;5075265;28;20027;-56
2022/12/11 05:13:41;;;;;;;38.20;17.45;;;;;;;;;;5075002;28;20021;-56
2022/12/11 05:16:07;;;;;;;43.08;18.77;;;;;;;;;;5073779;28;20505;-57
2022/12/11 05:18:32;;;;;;;40.13;17.63;;;;;;;;;;5079550;28;20047;-56
2022/12/11 05:20:59;;;;;;;41.72;20.45;;;;;;;;;;5079610;28;20026;-57
2022/12/11 05:23:24;;;;;;;46.38;20.27;;;;;;;;;;5078875;28;20035;-56
2022/12/11 05:25:59;;;;;;;43.40;21.05;;;;;;;;;;5074383;28;20024;-56
2022/12/11 05:28:25;;;;;;;43.00;20.65;;;;;;;;;;5066488;28;20081;-57
2022/12/11 05:30:57;;;;;;;44.22;20.05;;;;;;;;;;5072244;28;20089;-57
2022/12/11 05:33:22;;;;;;;39.25;19.73;;;;;;;;;;5074049;28;20029;-57
2022/12/11 05:35:48;;;;;;;36.30;19.20;;;;;;;;;;5070050;28;20032;-55
2022/12/11 05:38:13;;;;;;;41.75;20.02;;;;;;;;;;5076568;28;20028;-56
2022/12/11 05:40:38;;;;;;;40.45;20.33;;;;;;;;;;5067217;28;20017;-56
2022/12/11 05:43:04;;;;;;;52.15;24.27;;;;;;;;;;5068984;28;20076;-55
2022/12/11 05:45:29;;;;;;;54.72;24.70;;;;;;;;;;5077055;28;20027;-55
2022/12/11 05:47:54;;;;;;;42.95;19.55;;;;;;;;;;5077058;28;20438;-55
2022/12/11 05:50:20;;;;;;;60.08;24.58;;;;;;;;;;5066302;28;20024;-58
2022/12/11 05:52:45;;;;;;;58.83;23.70;;;;;;;;;;5079408;28;20078;-56
2022/12/11 05:55:10;;;;;;;53.55;22.65;;;;;;;;;;5069440;28;20050;-57
2022/12/11 05:57:35;;;;;;;50.60;23.98;;;;;;;;;;5069773;28;20540;-56
2022/12/11 06:00:01;;;;;;;46.47;23.98;;;;;;;;;;5070753;28;20032;-57
2022/12/11 06:02:26;;;;;;;53.78;23.65;;;;;;;;;;5064215;28;20093;-57
2022/12/11 06:04:51;;;;;;;44.03;20.65;;;;;;;;;;5077778;28;20044;-56
2022/12/11 06:07:16;;;;;;;40.50;19.58;;;;;;;;;;5078974;28;20373;-55
2022/12/11 06:09:42;;;;;;;38.13;19.23;;;;;;;;;;5070415;28;20481;-55
2022/12/11 06:12:07;;;;;;;41.35;18.75;;;;;;;;;;5066997;28;20020;-55
2022/12/11 06:14:32;;;;;;;39.25;18.95;;;;;;;;;;5076671;28;20484;-56
2022/12/11 06:16:58;;;;;;;35.00;18.20;;;;;;;;;;5070451;28;20561;-59
2022/12/11 06:19:23;;;;;;;36.97;18.35;;;;;;;;;;5077847;28;20030;-57
2022/12/11 06:21:48;;;;;;;39.90;17.98;;;;;;;;;;5073986;28;20065;-57
2022/12/11 06:24:13;;;;;;;41.08;18.98;;;;;;;;;;5066651;28;20103;-55
2022/12/11 06:26:39;;;;;;;39.88;18.55;;;;;;;;;;5067395;28;20028;-56
2022/12/11 06:29:04;;;;;;;39.80;18.60;;;;;;;;;;5068946;28;20028;-55
2022/12/11 06:31:29;;;;;;;36.22;17.83;;;;;;;;;;5071178;28;20028;-58
2022/12/11 06:33:55;;;;;;;42.38;19.58;;;;;;;;;;5070722;28;20479;-57
2022/12/11 06:36:23;;;;;;;41.92;19.05;;;;;;;;;;5075151;28;20044;-57
2022/12/11 06:38:48;;;;;;;43.55;18.02;;;;;;;;;;5071565;28;20028;-57
2022/12/11 06:41:14;;;;;;;41.63;18.80;;;;;;;;;;5069460;28;20039;-57
2022/12/11 06:43:39;;;;;;;45.03;18.38;;;;;;;;;;5073566;28;20123;-57
2022/12/11 06:46:05;;;;;;;38.22;17.45;;;;;;;;;;5071442;28;20525;-57
2022/12/11 06:48:30;;;;;;;44.03;20.20;;;;;;;;;;5075217;28;20113;-56
2022/12/11 06:50:56;;;;;;;39.53;18.73;;;;;;;;;;5070196;28;20036;-56
2022/12/11 06:53:24;;;;;;;38.03;18.42;;;;;;;;;;5066273;28;20109;-56
2022/12/11 06:55:50;;;;;;;34.28;17.13;;;;;;;;;;5070362;28;20036;-56
2022/12/11 06:58:15;;;;;;;40.33;18.65;;;;;;;;;;5072727;28;20024;-57
2022/12/11 07:00:40;;;;;;;47.83;20.75;;;;;;;;;;5079560;28;20032;-57
2022/12/11 07:03:06;;;;;;;45.08;20.05;;;;;;;;;;5079076;28;20478;-54
2022/12/11 07:05:31;;;;;;;42.63;19.75;;;;;;;;;;5075493;28;20055;-56
2022/12/11 07:07:57;;;;;;;46.13;20.25;;;;;;;;;;5081940;28;20181;-57
2022/12/11 07:10:22;;;;;;;45.72;20.77;;;;;;;;;;5075618;28;20039;-58
2022/12/11 07:12:47;;;;;;;42.63;19.23;;;;;;;;;;5080440;28;20025;-58
2022/12/11 07:15:12;;;;;;;42.40;20.52;;;;;;;;;;5077852;28;20109;-58
2022/12/11 07:17:41;;;;;;;47.90;21.05;;;;;;;;;;5072627;28;20040;-58
2022/12/11 07:20:06;;;;;;;44.25;19.73;;;;;;;;;;5072975;28;20086;-56
2022/12/11 07:22:34;;;;;;;39.78;19.05;;;;;;;;;;5076164;28;20024;-56
2022/12/11 07:25:00;;;;;;;43.90;19.98;;;;;;;;;;5074692;28;20470;-57
2022/12/11 07:27:25;;;;;;;44.55;18.08;;;;;;;;;;5071861;28;20031;-57
2022/12/11 07:29:51;;;;;;;47.20;19.13;;;;;;;;;;5075074;28;20034;-56
2022/12/11 07:32:16;;;;;;;42.65;17.80;;;;;;;;;;5069184;28;20028;-57
2022/12/11 07:34:41;;;;;;;40.63;17.27;;;;;;;;;;5075438;28;20024;-58
2022/12/11 07:37:07;;;;;;;35.28;15.85;;;;;;;;;;5070255;28;20467;-57
2022/12/11 07:39:32;;;;;;;51.28;18.38;;;;;;;;;;5073800;28;20035;-57
2022/12/11 07:41:57;;;;;;;47.97;18.10;;;;;;;;;;5075897;28;20416;-56
2022/12/11 07:44:22;;;;;;;49.53;18.02;;;;;;;;;;5077969;28;20032;-56
2022/12/11 07:46:48;;;;;;;41.65;17.33;;;;;;;;;;5080457;28;20639;-56
2022/12/11 07:49:13;;;;;;;46.22;19.85;;;;;;;;;;5077302;28;20379;-56
2022/12/11 07:51:38;;;;;;;44.70;19.88;;;;;;;;;;5069181;28;20028;-55
2022/12/11 07:54:05;;;;;;;40.92;18.58;;;;;;;;;;5074697;28;20459;-57
2022/12/11 07:56:34;;;;;;;38.08;18.20;;;;;;;;;;5072587;28;20470;-57
2022/12/11 07:58:59;;;;;;;36.58;17.17;;;;;;;;;;5073108;28;20028;-56
2022/12/11 08:01:32;;;;;;;45.05;17.55;;;;;;;;;;5071772;28;20032;-58
2022/12/11 08:03:57;;;;;;;40.88;18.35;;;;;;;;;;5077470;27;20020;-57
2022/12/11 08:06:26;;;;;;;39.65;18.35;;;;;;;;;;5072843;28;20102;-57
2022/12/11 08:08:52;;;;;;;38.80;16.13;;;;;;;;;;5072217;28;20028;-57
2022/12/11 08:11:17;;;;;;;39.28;19.00;;;;;;;;;;5078547;28;20354;-56
2022/12/11 08:13:43;;;;;;;46.63;19.52;;;;;;;;;;5071880;28;20509;-57
2022/12/11 08:16:09;;;;;;;40.60;19.85;;;;;;;;;;5078692;28;20368;-57
2022/12/11 08:18:34;;;;;;;42.65;21.08;;;;;;;;;;5068112;28;20498;-58
2022/12/11 08:21:04;;;;;;;36.22;18.05;;;;;;;;;;5070487;28;20287;-56
2022/12/11 08:23:29;;;;;;;41.00;21.55;;;;;;;;;;5071004;28;20358;-57
2022/12/11 08:25:55;;;;;;;46.75;20.65;;;;;;;;;;5070832;28;20024;-57
2022/12/11 08:28:20;;;;;;;58.10;24.85;;;;;;;;;;5072825;28;20032;-57
2022/12/11 08:30:46;;;;;;;62.75;26.52;;;;;;;;;;5076408;28;20492;-57
2022/12/11 08:33:11;;;;;;;57.50;26.60;;;;;;;;;;5075122;28;20051;-57
2022/12/11 08:35:39;;;;;;;54.55;24.02;;;;;;;;;;5072400;28;20047;-57
2022/12/11 08:38:05;;;;;;;49.22;23.77;;;;;;;;;;5074277;28;20036;-56
2022/12/11 08:40:30;;;;;;;54.08;25.30;;;;;;;;;;5076281;28;20032;-56
2022/12/11 08:42:55;;;;;;;67.20;27.45;;;;;;;;;;5070475;28;20347;-58
2022/12/11 08:45:21;;;;;;;60.72;26.70;;;;;;;;;;5079267;28;20167;-58
2022/12/11 08:47:46;;;;;;;63.00;28.60;;;;;;;;;;5072169;27;20059;-61
2022/12/11 08:50:11;;;;;;;58.42;24.25;;;;;;;;;;5075544;28;20379;-57
2022/12/11 08:52:36;;;;;;;59.63;22.40;;;;;;;;;;5074274;28;20628;-56
2022/12/11 08:55:02;;;;;;;51.78;22.05;;;;;;;;;;5070231;28;20148;-56
2022/12/11 08:57:27;;;;;;;56.53;23.60;;;;;;;;;;5071158;28;20055;-56
2022/12/11 08:59:52;;;;;;;42.83;18.60;;;;;;;;;;5071596;28;20593;-56
2022/12/11 09:02:18;;;;;;;40.97;16.65;;;;;;;;;;5074279;28;20152;-57
2022/12/11 09:04:43;;;;;;;48.53;21.08;;;;;;;;;;5076940;28;20036;-57
2022/12/11 09:07:08;;;;;;;48.35;19.58;;;;;;;;;;5074770;28;20036;-56
2022/12/11 09:09:33;;;;;;;52.97;19.10;;;;;;;;;;5077414;28;20371;-56
2022/12/11 09:12:00;;;;;;;47.95;19.77;;;;;;;;;;5070875;28;20536;-56
2022/12/11 09:14:28;;;;;;;60.58;25.83;;;;;;;;;;5074838;28;20492;-56
2022/12/11 09:16:56;;;;;;;60.90;22.88;;;;;;;;;;5094128;28;20032;-55
2022/12/11 09:19:21;;;;;;;53.05;19.73;;;;;;;;;;5075100;28;20170;-55
2022/12/11 09:21:46;;;;;;;42.47;18.40;;;;;;;;;;5069960;28;20115;-56
2022/12/11 09:24:11;;;;;;;41.40;18.65;;;;;;;;;;5077782;28;20046;-56
2022/12/11 09:26:37;;;;;;;42.65;17.95;;;;;;;;;;5072877;28;20028;-56
2022/12/11 09:29:02;;;;;;;48.17;20.90;;;;;;;;;;5073329;28;20029;-56
2022/12/11 09:31:29;;;;;;;52.83;22.30;;;;;;;;;;5069478;28;20112;-56
2022/12/11 09:33:56;;;;;;;47.53;22.42;;;;;;;;;;5072524;28;20067;-55
2022/12/11 09:36:21;;;;;;;49.65;23.55;;;;;;;;;;5071413;28;20075;-56
2022/12/11 09:38:46;;;;;;;45.45;23.45;;;;;;;;;;5066354;28;20096;-55
2022/12/11 09:41:21;;;;;;;46.63;22.45;;;;;;;;;;5070376;28;20127;-55
2022/12/11 09:44:04;;;;;;;42.92;21.35;;;;;;;;;;5069807;28;20063;-55
2022/12/11 09:46:30;;;;;;;46.05;20.48;;;;;;;;;;5071082;28;20020;-55
2022/12/11 09:48:55;;;;;;;42.45;21.63;;;;;;;;;;5072975;28;20258;-58
2022/12/11 09:51:22;;;;;;;46.58;23.55;;;;;;;;;;5072326;28;20353;-55
2022/12/11 09:53:49;;;;;;;41.53;22.05;;;;;;;;;;5080083;28;20042;-55
2022/12/11 09:56:21;;;;;;;43.97;21.00;;;;;;;;;;5073768;28;20071;-56
2022/12/11 09:58:52;;;;;;;46.45;23.38;;;;;;;;;;5068995;28;20020;-55
2022/12/11 10:01:20;;;;;;;50.13;23.67;;;;;;;;;;5069345;28;20039;-55
2022/12/11 10:03:51;;;;;;;42.95;20.02;;;;;;;;;;5070131;28;20102;-55
2022/12/11 10:06:23;;;;;;;47.58;20.73;;;;;;;;;;5073207;28;20136;-56
2022/12/11 10:09:06;;;;;;;78.78;29.83;;;;;;;;;;5067926;28;20029;-56
2022/12/11 10:11:38;;;;;;;53.22;24.95;;;;;;;;;;5068612;28;20028;-56
2022/12/11 10:14:22;;;;;;;59.75;26.65;;;;;;;;;;5074964;28;20121;-55
2022/12/11 10:16:49;;;;;;;54.05;22.83;;;;;;;;;;5072855;28;20067;-57
2022/12/11 10:19:18;;;;;;;47.38;20.90;;;;;;;;;;5075550;28;20388;-57
2022/12/11 10:21:43;;;;;;;44.17;20.30;;;;;;;;;;5072796;28;20328;-56
2022/12/11 10:24:29;;;;;;;57.95;24.65;;;;;;;;;;5071433;28;20470;-55
2022/12/11 10:26:56;;;;;;;52.08;22.67;;;;;;;;;;5071371;28;20040;-58
2022/12/11 10:29:21;;;;;;;45.58;22.52;;;;;;;;;;5074000;28;20478;-58
2022/12/11 10:31:56;;;;;;;53.42;25.58;;;;;;;;;;5077399;28;20023;-57
2022/12/11 10:34:21;;;;;;;59.40;26.23;;;;;;;;;;5069189;28;20039;-56
2022/12/11 10:36:47;;;;;;;47.95;22.70;;;;;;;;;;5071211;28;20040;-56
2022/12/11 10:39:15;;;;;;;45.40;20.23;;;;;;;;;;5074161;28;20023;-57
2022/12/11 10:41:41;;;;;;;34.03;17.15;;;;;;;;;;5076148;28;20058;-56
2022/12/11 10:44:17;;;;;;;29.67;14.95;;;;;;;;;;5072095;28;20103;-57
2022/12/11 10:46:42;;;;;;;29.75;14.45;;;;;;;;;;5076259;28;20039;-58
2022/12/11 10:49:17;;;;;;;39.78;18.30;;;;;;;;;;5072826;28;20033;-56
2022/12/11 10:51:42;;;;;;;37.95;18.27;;;;;;;;;;5077053;28;20024;-56
2022/12/11 10:54:28;;;;;;;35.85;16.83;;;;;;;;;;5068972;28;20362;-58
2022/12/11 10:56:53;;;;;;;27.00;13.10;;;;;;;;;;5072587;28;20117;-58
2022/12/11 10:59:23;;;;;;;29.52;14.27;;;;;;;;;;5078689;28;20070;-55
2022/12/11 11:01:48;;;;;;;29.48;14.35;;;;;;;;;;5072141;28;20504;-58
2022/12/11 11:04:25;;;;;;;29.13;12.77;;;;;;;;;;5076847;28;20599;-57
2022/12/11 11:07:01;;;;;;;35.60;14.52;;;;;;;;;;5072982;28;20047;-57
2022/12/11 11:09:32;;;;;;;30.98;12.48;;;;;;;;;;5078269;28;20095;-57
2022/12/11 11:11:57;;;;;;;23.90;11.70;;;;;;;;;;5064001;28;20024;-56
2022/12/11 11:14:23;;;;;;;24.45;12.15;;;;;;;;;;5072210;28;20101;-56
2022/12/11 11:16:48;;;;;;;25.13;11.85;;;;;;;;;;5067817;28;20383;-56
2022/12/11 11:19:29;;;;;;;24.48;12.00;;;;;;;;;;5076906;28;20111;-56
2022/12/11 11:21:57;;;;;;;26.40;13.43;;;;;;;;;;5062222;28;20032;-57
2022/12/11 11:24:34;;;;;;;25.23;12.77;;;;;;;;;;5070651;28;20385;-57
2022/12/11 11:26:59;;;;;;;25.25;13.02;;;;;;;;;;5067357;28;20039;-57
2022/12/11 11:29:27;;;;;;;25.73;13.40;;;;;;;;;;5071866;28;20443;-58
2022/12/11 11:31:52;;;;;;;32.95;17.70;;;;;;;;;;5076212;28;20024;-56
2022/12/11 11:34:19;;;;;;;22.30;11.40;;;;;;;;;;5072327;28;20028;-56
2022/12/11 11:36:45;;;;;;;25.20;11.05;;;;;;;;;;5073963;28;20127;-56
2022/12/11 11:39:31;;;;;;;24.70;11.52;;;;;;;;;;5074591;28;20135;-57
2022/12/11 11:42:02;;;;;;;20.92;10.38;;;;;;;;;;5068279;28;20036;-56
2022/12/11 11:44:54;;;;;;;24.38;11.43;;;;;;;;;;5073122;28;20072;-57
2022/12/11 11:47:21;;;;;;;22.58;10.57;;;;;;;;;;5068105;28;20479;-57
2022/12/11 11:49:47;;;;;;;20.90;9.75;;;;;;;;;;5074580;28;20426;-56
2022/12/11 11:52:15;;;;;;;21.90;10.50;;;;;;;;;;5069366;28;20031;-57
2022/12/11 11:54:49;;;;;;;23.05;10.20;;;;;;;;;;5072144;28;20024;-58
2022/12/11 11:57:16;;;;;;;15.80;8.55;;;;;;;;;;5075204;28;20478;-57
2022/12/11 11:59:44;;;;;;;18.05;9.80;;;;;;;;;;5067989;28;20707;-57
2022/12/11 12:02:13;;;;;;;19.27;9.85;;;;;;;;;;5074038;28;20328;-56
2022/12/11 12:04:38;;;;;;;16.67;7.85;;;;;;;;;;5070360;28;20331;-56
2022/12/11 12:07:03;;;;;;;19.42;9.30;;;;;;;;;;5074623;28;20041;-56
2022/12/11 12:09:38;;;;;;;17.85;9.13;;;;;;;;;;5085482;28;20020;-57
2022/12/11 12:12:03;;;;;;;18.40;9.50;;;;;;;;;;5073909;28;20573;-55
2022/12/11 12:14:34;;;;;;;17.15;8.95;;;;;;;;;;5068360;28;20039;-57
2022/12/11 12:17:04;;;;;;;19.70;8.93;;;;;;;;;;5068455;28;20421;-58
2022/12/11 12:19:44;;;;;;;21.73;11.10;;;;;;;;;;5067618;28;20024;-57
2022/12/11 12:22:38;;;;;;;20.70;10.77;;;;;;;;;;5054902;28;20046;-57
2022/12/11 12:25:06;;;;;;;20.85;9.63;;;;;;;;;;5062517;28;20072;-56
2022/12/11 12:27:54;;;;;;;16.20;8.35;;;;;;;;;;5073295;28;20417;-56
2022/12/11 12:30:19;;;;;;;15.57;8.30;;;;;;;;;;5053026;28;20108;-59
2022/12/11 12:32:44;;;;;;;18.90;9.05;;;;;;;;;;5067391;28;20106;-57
2022/12/11 12:35:29;;;;;;;18.00;9.10;;;;;;;;;;5067995;28;20020;-58
2022/12/11 12:37:54;;;;;;;21.73;13.13;;;;;;;;;;5075829;28;20047;-56
2022/12/11 12:40:20;;;;;;;21.80;12.48;;;;;;;;;;5073637;28;20401;-57
2022/12/11 12:42:45;;;;;;;21.70;11.52;;;;;;;;;;5072758;28;20563;-56
2022/12/11 12:45:10;;;;;;;24.23;12.30;;;;;;;;;;5068997;28;20024;-55
2022/12/11 12:47:36;;;;;;;20.40;9.75;;;;;;;;;;5065710;28;20024;-56
2022/12/11 12:50:01;;;;;;;17.67;9.48;;;;;;;;;;5072690;28;20025;-57
2022/12/11 12:52:28;;;;;;;17.10;8.95;;;;;;;;;;5072538;28;20020;-57
2022/12/11 12:55:13;;;;;;;26.08;12.90;;;;;;;;;;5065869;28;20166;-56
2022/12/11 12:57:43;;;;;;;25.35;12.15;;;;;;;;;;5068979;28;20032;-57
2022/12/11 13:00:11;;;;;;;25.80;16.05;;;;;;;;;;5074940;28;20035;-57
2022/12/11 13:02:59;;;;;;;24.15;14.00;;;;;;;;;;5066240;28;20075;-56
2022/12/11 13:05:25;;;;;;;21.92;11.20;;;;;;;;;;5079085;28;20044;-57
2022/12/11 13:07:52;;;;;;;20.63;10.70;;;;;;;;;;5070669;28;20054;-58
2022/12/11 13:10:24;;;;;;;20.98;10.18;;;;;;;;;;5071869;28;20034;-56
2022/12/11 13:12:50;;;;;;;22.13;11.32;;;;;;;;;;5072908;28;20028;-56
2022/12/11 13:15:29;;;;;;;18.48;8.88;;;;;;;;;;5076178;28;20035;-56
2022/12/11 13:17:54;;;;;;;18.83;9.50;;;;;;;;;;5064953;28;20036;-57
2022/12/11 13:20:24;;;;;;;18.30;9.02;;;;;;;;;;5076636;28;20046;-56
2022/12/11 13:22:54;;;;;;;13.82;8.70;;;;;;;;;;5070785;28;20028;-56
2022/12/11 13:25:22;;;;;;;17.45;8.93;;;;;;;;;;5063695;28;20139;-56
2022/12/11 13:27:48;;;;;;;18.40;10.50;;;;;;;;;;5088800;28;20028;-57
2022/12/11 13:30:13;;;;;;;15.73;9.00;;;;;;;;;;5071031;28;20675;-56
2022/12/11 13:32:42;;;;;;;19.38;9.80;;;;;;;;;;5075633;28;20515;-56
2022/12/11 13:35:16;;;;;;;19.50;9.88;;;;;;;;;;5075939;28;20226;-56
2022/12/11 13:37:45;;;;;;;21.38;9.65;;;;;;;;;;5064916;28;20062;-55
2022/12/11 13:40:13;;;;;;;13.48;7.30;;;;;;;;;;5064301;28;20423;-56
2022/12/11 13:42:43;;;;;;;18.63;9.82;;;;;;;;;;5068423;28;20039;-57
2022/12/11 13:45:17;;;;;;;17.55;9.50;;;;;;;;;;5064565;28;20047;-56
2022/12/11 13:47:42;;;;;;;16.63;7.90;;;;;;;;;;5071035;28;20024;-56
2022/12/11 13:50:14;;;;;;;21.98;10.10;;;;;;;;;;5070237;28;20047;-56
2022/12/11 13:52:39;;;;;;;17.33;8.60;;;;;;;;;;5069378;28;20016;-56
2022/12/11 13:55:13;;;;;;;17.45;9.82;;;;;;;;;;5072521;28;20111;-56
2022/12/11 13:57:44;;;;;;;12.77;7.43;;;;;;;;;;5076203;28;20035;-56
2022/12/11 14:00:17;;;;;;;22.05;11.68;;;;;;;;;;5067970;28;20031;-56
2022/12/11 14:02:43;;;;;;;19.00;9.48;;;;;;;;;;5066957;28;20024;-55
2022/12/11 14:05:08;;;;;;;23.42;11.02;;;;;;;;;;5065677;28;20356;-56
2022/12/11 14:07:37;;;;;;;16.60;9.40;;;;;;;;;;5064565;28;20186;-55
2022/12/11 14:10:04;;;;;;;11.93;6.78;;;;;;;;;;5063186;28;20032;-56
2022/12/11 14:12:30;;;;;;;19.75;9.82;;;;;;;;;;5066827;28;20047;-54
2022/12/11 14:14:55;;;;;;;22.73;11.35;;;;;;;;;;5064902;28;20481;-56
2022/12/11 14:17:28;;;;;;;22.73;10.02;;;;;;;;;;5071954;28;20024;-56
2022/12/11 14:19:53;;;;;;;18.35;9.80;;;;;;;;;;5072126;28;20024;-55
2022/12/11 14:22:19;;;;;;;21.30;11.15;;;;;;;;;;5067121;28;20027;-56
2022/12/11 14:24:51;;;;;;;21.25;10.10;;;;;;;;;;5068254;28;20021;-57
2022/12/11 14:27:17;;;;;;;24.70;9.82;;;;;;;;;;5072316;28;20509;-56
2022/12/11 14:29:42;;;;;;;25.38;12.07;;;;;;;;;;5079278;28;20467;-57
2022/12/11 14:32:08;;;;;;;18.00;9.95;;;;;;;;;;5058688;28;20088;-57
2022/12/11 14:34:38;;;;;;;20.65;11.07;;;;;;;;;;5069248;28;20085;-57